OSAP/ALP METAR and TAF weather

Enter ICAO airport designator
Station Type Date Time Source
OSAP METAR 2022/10/06 18:00 UTC NOAA

OSAP 061800Z 33004KT CAVOK 24/16 Q1015


Station Type Date Time Source
OSAP Decoded METAR 2022/10/06 18:00 UTC NOAA

Aleppo International Airport, Syria (OSAP) 36-11N 037-12E 384M
Oct 06, 2022 - 02:00 PM EDT / 2022.10.06 1800 UTC
Wind: from the NNW (330 degrees) at 5 MPH (4 KT):0
Visibility: greater than 7 mile(s):0
Temperature: 75 F (24 C)
Dew Point: 60 F (16 C)
Relative Humidity: 60%
Pressure (altimeter): 29.97 in. Hg (1015 hPa)
ob: OSAP 061800Z 33004KT CAVOK 24/16 Q1015
cycle: 18

Station Type Date Time Source
OSAP TAF 2022/10/06 18:57 UTC NOAA

TAF TAF OSAP 061600Z 0618/0718 30008KT CAVOK

Example: see airport list